sensor_id;sensor_type;location;lat;lon;timestamp;temperature;humidity
3069;DHT22;1545;51.728;8.796;2023-06-14T00:02:11;17.00;61.90
3069;DHT22;1545;51.728;8.796;2023-06-14T00:04:37;17.00;62.30
3069;DHT22;1545;51.728;8.796;2023-06-14T00:07:05;16.90;62.80
3069;DHT22;1545;51.728;8.796;2023-06-14T00:09:33;16.80;62.80
3069;DHT22;1545;51.728;8.796;2023-06-14T00:11:58;16.80;62.90
3069;DHT22;1545;51.728;8.796;2023-06-14T00:14:24;16.90;63.20
3069;DHT22;1545;51.728;8.796;2023-06-14T00:16:50;16.90;63.10
3069;DHT22;1545;51.728;8.796;2023-06-14T00:19:17;16.90;62.90
3069;DHT22;1545;51.728;8.796;2023-06-14T00:21:43;16.90;62.80
3069;DHT22;1545;51.728;8.796;2023-06-14T00:24:08;17.00;62.50
3069;DHT22;1545;51.728;8.796;2023-06-14T00:26:34;17.00;62.30
3069;DHT22;1545;51.728;8.796;2023-06-14T00:28:59;17.10;62.20
3069;DHT22;1545;51.728;8.796;2023-06-14T00:31:25;17.10;62.40
3069;DHT22;1545;51.728;8.796;2023-06-14T00:33:50;17.00;62.60
3069;DHT22;1545;51.728;8.796;2023-06-14T00:36:16;17.00;62.60
3069;DHT22;1545;51.728;8.796;2023-06-14T00:38:41;17.00;62.80
3069;DHT22;1545;51.728;8.796;2023-06-14T00:41:07;17.00;62.90
3069;DHT22;1545;51.728;8.796;2023-06-14T00:43:32;16.90;63.20
3069;DHT22;1545;51.728;8.796;2023-06-14T00:46:00;16.80;63.50
3069;DHT22;1545;51.728;8.796;2023-06-14T00:48:25;16.90;63.60
3069;DHT22;1545;51.728;8.796;2023-06-14T00:50:52;16.90;63.40
3069;DHT22;1545;51.728;8.796;2023-06-14T00:53:18;16.80;64.00
3069;DHT22;1545;51.728;8.796;2023-06-14T00:55:44;16.70;64.50
3069;DHT22;1545;51.728;8.796;2023-06-14T00:58:10;16.50;65.10
3069;DHT22;1545;51.728;8.796;2023-06-14T01:00:36;16.40;66.20
3069;DHT22;1545;51.728;8.796;2023-06-14T01:03:01;16.10;66.80
3069;DHT22;1545;51.728;8.796;2023-06-14T01:05:28;16.00;67.60
3069;DHT22;1545;51.728;8.796;2023-06-14T01:08:20;15.90;67.90
3069;DHT22;1545;51.728;8.796;2023-06-14T01:10:56;15.70;68.30
3069;DHT22;1545;51.728;8.796;2023-06-14T01:13:37;15.80;68.00
3069;DHT22;1545;51.728;8.796;2023-06-14T01:16:05;15.90;67.70
3069;DHT22;1545;51.728;8.796;2023-06-14T01:18:32;15.90;67.50
3069;DHT22;1545;51.728;8.796;2023-06-14T01:20:58;16.00;67.20
3069;DHT22;1545;51.728;8.796;2023-06-14T01:23:24;16.00;67.10
3069;DHT22;1545;51.728;8.796;2023-06-14T01:25:50;16.00;67.20
3069;DHT22;1545;51.728;8.796;2023-06-14T01:28:19;16.00;67.10
3069;DHT22;1545;51.728;8.796;2023-06-14T01:30:49;16.10;66.80
3069;DHT22;1545;51.728;8.796;2023-06-14T01:33:24;16.00;67.10
3069;DHT22;1545;51.728;8.796;2023-06-14T01:35:52;16.10;67.00
3069;DHT22;1545;51.728;8.796;2023-06-14T01:38:21;16.10;66.80
3069;DHT22;1545;51.728;8.796;2023-06-14T01:40:48;16.10;66.90
3069;DHT22;1545;51.728;8.796;2023-06-14T01:43:14;16.10;67.20
3069;DHT22;1545;51.728;8.796;2023-06-14T01:45:41;16.00;67.80
3069;DHT22;1545;51.728;8.796;2023-06-14T01:48:08;15.90;68.10
3069;DHT22;1545;51.728;8.796;2023-06-14T01:50:34;15.80;68.70
3069;DHT22;1545;51.728;8.796;2023-06-14T01:52:59;15.70;69.10
3069;DHT22;1545;51.728;8.796;2023-06-14T01:55:25;15.60;69.40
3069;DHT22;1545;51.728;8.796;2023-06-14T01:57:51;15.50;70.20
3069;DHT22;1545;51.728;8.796;2023-06-14T02:00:17;15.40;70.50
3069;DHT22;1545;51.728;8.796;2023-06-14T02:02:43;15.30;71.00
3069;DHT22;1545;51.728;8.796;2023-06-14T02:05:09;15.20;71.50
3069;DHT22;1545;51.728;8.796;2023-06-14T02:07:36;15.10;71.90
3069;DHT22;1545;51.728;8.796;2023-06-14T02:10:02;15.00;72.10
3069;DHT22;1545;51.728;8.796;2023-06-14T02:12:28;15.00;72.40
3069;DHT22;1545;51.728;8.796;2023-06-14T02:14:53;14.90;72.30
3069;DHT22;1545;51.728;8.796;2023-06-14T02:17:19;14.90;72.50
3069;DHT22;1545;51.728;8.796;2023-06-14T02:19:45;14.90;72.70
3069;DHT22;1545;51.728;8.796;2023-06-14T02:22:11;14.80;73.00
3069;DHT22;1545;51.728;8.796;2023-06-14T02:24:36;14.70;73.30
3069;DHT22;1545;51.728;8.796;2023-06-14T02:27:04;14.70;73.70
3069;DHT22;1545;51.728;8.796;2023-06-14T02:29:29;14.60;74.00
3069;DHT22;1545;51.728;8.796;2023-06-14T02:31:55;14.50;74.40
3069;DHT22;1545;51.728;8.796;2023-06-14T02:34:20;14.40;74.90
3069;DHT22;1545;51.728;8.796;2023-06-14T02:36:47;14.30;74.90
3069;DHT22;1545;51.728;8.796;2023-06-14T02:39:13;14.20;75.70
3069;DHT22;1545;51.728;8.796;2023-06-14T02:41:39;14.10;76.20
3069;DHT22;1545;51.728;8.796;2023-06-14T02:44:05;14.00;76.10
3069;DHT22;1545;51.728;8.796;2023-06-14T02:46:30;14.00;76.20
3069;DHT22;1545;51.728;8.796;2023-06-14T02:48:56;14.00;76.50
3069;DHT22;1545;51.728;8.796;2023-06-14T02:51:22;13.40;79.00
3069;DHT22;1545;51.728;8.796;2023-06-14T02:53:47;13.00;80.40
3069;DHT22;1545;51.728;8.796;2023-06-14T02:56:13;12.90;80.70
3069;DHT22;1545;51.728;8.796;2023-06-14T02:58:38;12.80;81.00
3069;DHT22;1545;51.728;8.796;2023-06-14T03:01:05;12.80;80.70
3069;DHT22;1545;51.728;8.796;2023-06-14T03:03:33;12.70;80.80
3069;DHT22;1545;51.728;8.796;2023-06-14T03:05:58;12.30;81.50
3069;DHT22;1545;51.728;8.796;2023-06-14T03:08:33;12.00;82.10
3069;DHT22;1545;51.728;8.796;2023-06-14T03:11:04;11.90;82.60
3069;DHT22;1545;51.728;8.796;2023-06-14T03:13:31;12.00;82.70
3069;DHT22;1545;51.728;8.796;2023-06-14T03:15:57;11.80;83.10
3069;DHT22;1545;51.728;8.796;2023-06-14T03:18:23;11.60;83.30
3069;DHT22;1545;51.728;8.796;2023-06-14T03:20:48;11.60;83.50
3069;DHT22;1545;51.728;8.796;2023-06-14T03:23:14;11.50;83.70
3069;DHT22;1545;51.728;8.796;2023-06-14T03:25:39;11.40;84.40
3069;DHT22;1545;51.728;8.796;2023-06-14T03:28:07;11.40;84.50
3069;DHT22;1545;51.728;8.796;2023-06-14T03:30:33;11.60;84.50
3069;DHT22;1545;51.728;8.796;2023-06-14T03:32:58;11.70;83.90
3069;DHT22;1545;51.728;8.796;2023-06-14T03:35:28;11.90;83.10
3069;DHT22;1545;51.728;8.796;2023-06-14T03:37:53;12.10;82.80
3069;DHT22;1545;51.728;8.796;2023-06-14T03:40:20;12.20;82.50
3069;DHT22;1545;51.728;8.796;2023-06-14T03:42:46;12.30;82.40
3069;DHT22;1545;51.728;8.796;2023-06-14T03:45:12;12.40;81.80
3069;DHT22;1545;51.728;8.796;2023-06-14T03:47:38;12.50;81.50
3069;DHT22;1545;51.728;8.796;2023-06-14T03:50:04;12.50;81.50
3069;DHT22;1545;51.728;8.796;2023-06-14T03:52:30;12.70;81.50
3069;DHT22;1545;51.728;8.796;2023-06-14T03:54:56;12.60;81.50
3069;DHT22;1545;51.728;8.796;2023-06-14T03:57:23;12.70;81.60
3069;DHT22;1545;51.728;8.796;2023-06-14T03:59:48;12.70;81.50
3069;DHT22;1545;51.728;8.796;2023-06-14T04:02:15;12.90;81.60
3069;DHT22;1545;51.728;8.796;2023-06-14T04:04:41;13.20;80.90
3069;DHT22;1545;51.728;8.796;2023-06-14T04:07:09;13.40;80.30
3069;DHT22;1545;51.728;8.796;2023-06-14T04:09:35;13.70;79.50
3069;DHT22;1545;51.728;8.796;2023-06-14T04:12:01;14.00;78.80
3069;DHT22;1545;51.728;8.796;2023-06-14T04:14:26;14.20;78.40
3069;DHT22;1545;51.728;8.796;2023-06-14T04:16:52;14.70;78.10
3069;DHT22;1545;51.728;8.796;2023-06-14T04:19:17;16.70;74.90
3069;DHT22;1545;51.728;8.796;2023-06-14T04:21:43;18.50;69.30
3069;DHT22;1545;51.728;8.796;2023-06-14T04:24:08;19.40;65.30
3069;DHT22;1545;51.728;8.796;2023-06-14T04:26:38;20.00;63.20
3069;DHT22;1545;51.728;8.796;2023-06-14T04:29:04;20.80;60.00
3069;DHT22;1545;51.728;8.796;2023-06-14T04:31:31;21.40;58.10
3069;DHT22;1545;51.728;8.796;2023-06-14T04:33:59;22.20;56.70
3069;DHT22;1545;51.728;8.796;2023-06-14T04:36:25;23.10;54.90
3069;DHT22;1545;51.728;8.796;2023-06-14T04:38:53;25.20;51.10
3069;DHT22;1545;51.728;8.796;2023-06-14T04:41:21;25.90;49.40
3069;DHT22;1545;51.728;8.796;2023-06-14T04:43:48;25.90;48.50
3069;DHT22;1545;51.728;8.796;2023-06-14T04:46:14;27.20;47.40
3069;DHT22;1545;51.728;8.796;2023-06-14T04:48:41;28.00;45.80
3069;DHT22;1545;51.728;8.796;2023-06-14T04:51:08;29.30;44.20
3069;DHT22;1545;51.728;8.796;2023-06-14T04:53:34;30.20;43.00
3069;DHT22;1545;51.728;8.796;2023-06-14T04:55:59;29.70;43.60
3069;DHT22;1545;51.728;8.796;2023-06-14T04:58:26;28.60;44.30
3069;DHT22;1545;51.728;8.796;2023-06-14T05:00:52;30.50;42.80
3069;DHT22;1545;51.728;8.796;2023-06-14T05:03:18;29.50;43.30
3069;DHT22;1545;51.728;8.796;2023-06-14T05:05:46;29.70;43.30
3069;DHT22;1545;51.728;8.796;2023-06-14T05:08:11;30.60;42.00
3069;DHT22;1545;51.728;8.796;2023-06-14T05:10:38;29.70;42.70
3069;DHT22;1545;51.728;8.796;2023-06-14T05:13:03;30.00;42.40
3069;DHT22;1545;51.728;8.796;2023-06-14T05:15:29;29.90;42.60
3069;DHT22;1545;51.728;8.796;2023-06-14T05:17:55;28.20;44.30
3069;DHT22;1545;51.728;8.796;2023-06-14T05:20:24;29.20;43.90
3069;DHT22;1545;51.728;8.796;2023-06-14T05:22:51;31.00;41.40
3069;DHT22;1545;51.728;8.796;2023-06-14T05:25:18;30.70;40.70
3069;DHT22;1545;51.728;8.796;2023-06-14T05:27:44;31.00;41.40
3069;DHT22;1545;51.728;8.796;2023-06-14T05:30:10;31.30;40.90
3069;DHT22;1545;51.728;8.796;2023-06-14T05:32:36;29.60;42.60
3069;DHT22;1545;51.728;8.796;2023-06-14T05:35:01;31.70;40.80
3069;DHT22;1545;51.728;8.796;2023-06-14T05:37:27;31.90;39.90
3069;DHT22;1545;51.728;8.796;2023-06-14T05:39:52;29.60;43.00
3069;DHT22;1545;51.728;8.796;2023-06-14T05:42:17;28.90;42.50
3069;DHT22;1545;51.728;8.796;2023-06-14T05:44:43;28.90;43.00
3069;DHT22;1545;51.728;8.796;2023-06-14T05:47:08;27.40;45.60
3069;DHT22;1545;51.728;8.796;2023-06-14T05:49:34;29.60;42.60
3069;DHT22;1545;51.728;8.796;2023-06-14T05:51:59;28.90;42.90
3069;DHT22;1545;51.728;8.796;2023-06-14T05:54:25;26.90;45.70
3069;DHT22;1545;51.728;8.796;2023-06-14T05:56:51;27.00;45.00
3069;DHT22;1545;51.728;8.796;2023-06-14T05:59:16;26.20;46.70
3069;DHT22;1545;51.728;8.796;2023-06-14T06:01:42;25.90;47.70
3069;DHT22;1545;51.728;8.796;2023-06-14T06:04:07;27.80;45.40
3069;DHT22;1545;51.728;8.796;2023-06-14T06:06:33;28.10;43.90
3069;DHT22;1545;51.728;8.796;2023-06-14T06:08:58;30.20;42.40
3069;DHT22;1545;51.728;8.796;2023-06-14T06:11:24;29.70;42.70
3069;DHT22;1545;51.728;8.796;2023-06-14T06:13:49;28.90;44.20
3069;DHT22;1545;51.728;8.796;2023-06-14T06:16:15;30.30;42.20
3069;DHT22;1545;51.728;8.796;2023-06-14T06:18:41;29.50;42.80
3069;DHT22;1545;51.728;8.796;2023-06-14T06:21:06;29.00;43.00
3069;DHT22;1545;51.728;8.796;2023-06-14T06:23:32;31.00;41.50
3069;DHT22;1545;51.728;8.796;2023-06-14T06:25:58;30.90;40.80
3069;DHT22;1545;51.728;8.796;2023-06-14T06:28:23;27.80;44.30
3069;DHT22;1545;51.728;8.796;2023-06-14T06:30:49;29.10;43.70
3069;DHT22;1545;51.728;8.796;2023-06-14T06:33:15;31.20;40.50
3069;DHT22;1545;51.728;8.796;2023-06-14T06:35:41;28.80;42.90
3069;DHT22;1545;51.728;8.796;2023-06-14T06:38:06;28.60;43.20
3069;DHT22;1545;51.728;8.796;2023-06-14T06:40:32;29.40;42.40
3069;DHT22;1545;51.728;8.796;2023-06-14T06:42:59;29.00;43.00
3069;DHT22;1545;51.728;8.796;2023-06-14T06:45:25;28.30;44.60
3069;DHT22;1545;51.728;8.796;2023-06-14T06:47:51;28.40;43.50
3069;DHT22;1545;51.728;8.796;2023-06-14T06:50:18;27.30;44.80
3069;DHT22;1545;51.728;8.796;2023-06-14T06:52:43;28.20;44.40
3069;DHT22;1545;51.728;8.796;2023-06-14T06:55:10;26.70;45.90
3069;DHT22;1545;51.728;8.796;2023-06-14T06:57:36;26.60;46.50
3069;DHT22;1545;51.728;8.796;2023-06-14T07:00:02;25.70;47.30
3069;DHT22;1545;51.728;8.796;2023-06-14T07:02:31;25.90;47.00
3069;DHT22;1545;51.728;8.796;2023-06-14T07:04:56;26.30;46.60
3069;DHT22;1545;51.728;8.796;2023-06-14T07:07:22;25.90;48.00
3069;DHT22;1545;51.728;8.796;2023-06-14T07:09:47;25.90;47.00
3069;DHT22;1545;51.728;8.796;2023-06-14T07:12:13;25.60;47.30
3069;DHT22;1545;51.728;8.796;2023-06-14T07:14:38;25.80;47.40
3069;DHT22;1545;51.728;8.796;2023-06-14T07:17:04;26.20;46.80
3069;DHT22;1545;51.728;8.796;2023-06-14T07:19:30;25.90;47.50
3069;DHT22;1545;51.728;8.796;2023-06-14T07:21:55;25.00;48.40
3069;DHT22;1545;51.728;8.796;2023-06-14T07:24:21;24.30;50.00
3069;DHT22;1545;51.728;8.796;2023-06-14T07:26:46;23.90;50.40
3069;DHT22;1545;51.728;8.796;2023-06-14T07:29:14;24.50;51.40
3069;DHT22;1545;51.728;8.796;2023-06-14T07:31:39;25.10;48.80
3069;DHT22;1545;51.728;8.796;2023-06-14T07:34:05;23.90;51.00
3069;DHT22;1545;51.728;8.796;2023-06-14T07:36:30;23.50;51.20
3069;DHT22;1545;51.728;8.796;2023-06-14T07:38:56;24.40;50.80
3069;DHT22;1545;51.728;8.796;2023-06-14T07:41:21;25.30;48.50
3069;DHT22;1545;51.728;8.796;2023-06-14T07:43:47;24.60;48.70
3069;DHT22;1545;51.728;8.796;2023-06-14T07:46:12;24.80;49.30
3069;DHT22;1545;51.728;8.796;2023-06-14T07:48:38;24.40;50.20
3069;DHT22;1545;51.728;8.796;2023-06-14T07:51:03;24.80;48.80
3069;DHT22;1545;51.728;8.796;2023-06-14T07:53:29;24.20;49.90
3069;DHT22;1545;51.728;8.796;2023-06-14T07:55:56;23.60;51.40
3069;DHT22;1545;51.728;8.796;2023-06-14T07:58:21;23.20;51.20
3069;DHT22;1545;51.728;8.796;2023-06-14T08:00:47;22.90;52.10
3069;DHT22;1545;51.728;8.796;2023-06-14T08:03:13;22.50;53.50
3069;DHT22;1545;51.728;8.796;2023-06-14T08:05:38;23.20;51.80
3069;DHT22;1545;51.728;8.796;2023-06-14T08:08:04;23.70;51.60
3069;DHT22;1545;51.728;8.796;2023-06-14T08:10:29;22.60;53.30
3069;DHT22;1545;51.728;8.796;2023-06-14T08:12:55;22.60;53.70
3069;DHT22;1545;51.728;8.796;2023-06-14T08:15:20;22.80;53.90
3069;DHT22;1545;51.728;8.796;2023-06-14T08:17:46;22.70;53.10
3069;DHT22;1545;51.728;8.796;2023-06-14T08:20:12;22.60;53.70
3069;DHT22;1545;51.728;8.796;2023-06-14T08:22:39;23.70;52.20
3069;DHT22;1545;51.728;8.796;2023-06-14T08:25:07;22.60;53.60
3069;DHT22;1545;51.728;8.796;2023-06-14T08:27:33;22.80;53.10
3069;DHT22;1545;51.728;8.796;2023-06-14T08:29:58;23.50;53.90
3069;DHT22;1545;51.728;8.796;2023-06-14T08:32:24;23.50;53.10
3069;DHT22;1545;51.728;8.796;2023-06-14T08:34:49;24.00;51.40
3069;DHT22;1545;51.728;8.796;2023-06-14T08:37:15;24.70;49.90
3069;DHT22;1545;51.728;8.796;2023-06-14T08:39:41;23.10;51.60
3069;DHT22;1545;51.728;8.796;2023-06-14T08:42:07;23.00;53.60
3069;DHT22;1545;51.728;8.796;2023-06-14T08:44:34;23.80;51.60
3069;DHT22;1545;51.728;8.796;2023-06-14T08:47:00;23.70;51.30
3069;DHT22;1545;51.728;8.796;2023-06-14T08:49:26;24.60;49.40
3069;DHT22;1545;51.728;8.796;2023-06-14T08:51:57;25.00;49.90
3069;DHT22;1545;51.728;8.796;2023-06-14T08:54:23;25.10;48.90
3069;DHT22;1545;51.728;8.796;2023-06-14T08:56:49;25.90;47.60
3069;DHT22;1545;51.728;8.796;2023-06-14T08:59:17;24.60;49.10
3069;DHT22;1545;51.728;8.796;2023-06-14T09:01:43;24.60;49.90
3069;DHT22;1545;51.728;8.796;2023-06-14T09:04:10;23.70;49.70
3069;DHT22;1545;51.728;8.796;2023-06-14T09:06:36;22.70;52.80
3069;DHT22;1545;51.728;8.796;2023-06-14T09:09:02;23.30;52.70
3069;DHT22;1545;51.728;8.796;2023-06-14T09:11:30;23.40;51.50
3069;DHT22;1545;51.728;8.796;2023-06-14T09:13:56;22.80;53.00
3069;DHT22;1545;51.728;8.796;2023-06-14T09:16:21;23.10;53.00
3069;DHT22;1545;51.728;8.796;2023-06-14T09:18:48;23.60;51.80
3069;DHT22;1545;51.728;8.796;2023-06-14T09:21:15;23.80;51.90
3069;DHT22;1545;51.728;8.796;2023-06-14T09:23:42;25.20;48.80
3069;DHT22;1545;51.728;8.796;2023-06-14T09:26:15;25.90;47.30
3069;DHT22;1545;51.728;8.796;2023-06-14T09:28:46;26.20;47.00
3069;DHT22;1545;51.728;8.796;2023-06-14T09:31:13;27.00;46.80
3069;DHT22;1545;51.728;8.796;2023-06-14T09:33:39;26.50;47.30
3069;DHT22;1545;51.728;8.796;2023-06-14T09:36:11;25.90;48.10
3069;DHT22;1545;51.728;8.796;2023-06-14T09:38:40;25.70;47.80
3069;DHT22;1545;51.728;8.796;2023-06-14T09:41:05;24.50;50.50
3069;DHT22;1545;51.728;8.796;2023-06-14T09:43:31;24.70;49.60
3069;DHT22;1545;51.728;8.796;2023-06-14T09:46:00;24.90;49.00
3069;DHT22;1545;51.728;8.796;2023-06-14T09:48:26;24.70;48.70
3069;DHT22;1545;51.728;8.796;2023-06-14T09:50:52;24.70;49.90
3069;DHT22;1545;51.728;8.796;2023-06-14T09:53:21;24.20;50.00
3069;DHT22;1545;51.728;8.796;2023-06-14T09:55:52;23.10;52.00
3069;DHT22;1545;51.728;8.796;2023-06-14T09:58:20;23.60;51.00
3069;DHT22;1545;51.728;8.796;2023-06-14T10:00:47;23.90;51.60
3069;DHT22;1545;51.728;8.796;2023-06-14T10:03:21;23.70;51.20
3069;DHT22;1545;51.728;8.796;2023-06-14T10:05:50;23.20;52.40
3069;DHT22;1545;51.728;8.796;2023-06-14T10:08:19;23.90;51.70
3069;DHT22;1545;51.728;8.796;2023-06-14T10:10:45;24.20;51.30
3069;DHT22;1545;51.728;8.796;2023-06-14T10:13:12;24.10;51.70
3069;DHT22;1545;51.728;8.796;2023-06-14T10:18:42;24.60;49.40
3069;DHT22;1545;51.728;8.796;2023-06-14T10:21:36;24.20;49.70
3069;DHT22;1545;51.728;8.796;2023-06-14T10:24:05;23.50;51.50
3069;DHT22;1545;51.728;8.796;2023-06-14T10:26:32;22.50;53.40
3069;DHT22;1545;51.728;8.796;2023-06-14T10:29:06;22.70;54.50
3069;DHT22;1545;51.728;8.796;2023-06-14T10:31:48;22.60;53.00
3069;DHT22;1545;51.728;8.796;2023-06-14T10:34:26;21.90;55.30
3069;DHT22;1545;51.728;8.796;2023-06-14T10:37:18;22.00;56.10
3069;DHT22;1545;51.728;8.796;2023-06-14T10:39:44;22.60;54.40
3069;DHT22;1545;51.728;8.796;2023-06-14T10:42:11;22.50;54.20
3069;DHT22;1545;51.728;8.796;2023-06-14T10:47:31;22.10;54.70
3069;DHT22;1545;51.728;8.796;2023-06-14T10:50:07;22.10;55.60
3069;DHT22;1545;51.728;8.796;2023-06-14T10:52:41;22.00;58.00
3069;DHT22;1545;51.728;8.796;2023-06-14T10:55:09;22.70;55.30
3069;DHT22;1545;51.728;8.796;2023-06-14T10:57:37;22.70;55.10
3069;DHT22;1545;51.728;8.796;2023-06-14T11:00:05;22.40;54.50
3069;DHT22;1545;51.728;8.796;2023-06-14T11:05:14;23.10;53.30
3069;DHT22;1545;51.728;8.796;2023-06-14T11:10:54;23.20;53.80
3069;DHT22;1545;51.728;8.796;2023-06-14T11:13:25;22.80;54.50
3069;DHT22;1545;51.728;8.796;2023-06-14T11:15:51;22.40;54.40
3069;DHT22;1545;51.728;8.796;2023-06-14T11:18:18;22.10;56.00
3069;DHT22;1545;51.728;8.796;2023-06-14T11:20:46;22.50;55.60
3069;DHT22;1545;51.728;8.796;2023-06-14T11:23:12;22.50;55.70
3069;DHT22;1545;51.728;8.796;2023-06-14T11:25:37;22.90;55.00
3069;DHT22;1545;51.728;8.796;2023-06-14T11:28:03;22.60;55.30
3069;DHT22;1545;51.728;8.796;2023-06-14T11:30:28;22.60;54.70
3069;DHT22;1545;51.728;8.796;2023-06-14T11:32:54;22.50;54.40
3069;DHT22;1545;51.728;8.796;2023-06-14T11:35:24;23.20;53.80
3069;DHT22;1545;51.728;8.796;2023-06-14T11:37:53;23.20;53.80
3069;DHT22;1545;51.728;8.796;2023-06-14T11:40:23;23.00;53.60
3069;DHT22;1545;51.728;8.796;2023-06-14T11:42:49;22.80;54.40
3069;DHT22;1545;51.728;8.796;2023-06-14T11:45:15;23.10;54.40
3069;DHT22;1545;51.728;8.796;2023-06-14T11:47:40;23.30;53.40
3069;DHT22;1545;51.728;8.796;2023-06-14T11:50:09;23.30;52.50
3069;DHT22;1545;51.728;8.796;2023-06-14T11:52:36;23.00;53.90
3069;DHT22;1545;51.728;8.796;2023-06-14T11:55:03;23.40;52.50
3069;DHT22;1545;51.728;8.796;2023-06-14T11:57:35;23.70;52.00
3069;DHT22;1545;51.728;8.796;2023-06-14T12:00:07;24.10;52.00
3069;DHT22;1545;51.728;8.796;2023-06-14T12:02:37;23.60;52.10
3069;DHT22;1545;51.728;8.796;2023-06-14T12:05:05;24.10;50.40
3069;DHT22;1545;51.728;8.796;2023-06-14T12:07:36;24.00;50.90
3069;DHT22;1545;51.728;8.796;2023-06-14T12:12:28;22.80;51.90
3069;DHT22;1545;51.728;8.796;2023-06-14T12:14:57;22.70;54.10
3069;DHT22;1545;51.728;8.796;2023-06-14T12:17:23;22.90;52.50
3069;DHT22;1545;51.728;8.796;2023-06-14T12:19:49;23.00;52.60
3069;DHT22;1545;51.728;8.796;2023-06-14T12:22:16;23.70;52.60
3069;DHT22;1545;51.728;8.796;2023-06-14T12:24:45;23.40;54.10
3069;DHT22;1545;51.728;8.796;2023-06-14T12:27:12;23.60;52.30
3069;DHT22;1545;51.728;8.796;2023-06-14T12:29:41;23.40;51.80
3069;DHT22;1545;51.728;8.796;2023-06-14T12:32:09;23.80;51.10
3069;DHT22;1545;51.728;8.796;2023-06-14T12:34:35;24.00;51.20
3069;DHT22;1545;51.728;8.796;2023-06-14T12:37:01;22.80;53.00
3069;DHT22;1545;51.728;8.796;2023-06-14T12:39:26;22.50;54.90
3069;DHT22;1545;51.728;8.796;2023-06-14T12:41:53;22.30;55.10
3069;DHT22;1545;51.728;8.796;2023-06-14T12:44:19;22.90;54.00
3069;DHT22;1545;51.728;8.796;2023-06-14T12:46:44;23.70;52.40
3069;DHT22;1545;51.728;8.796;2023-06-14T12:49:11;23.90;51.90
3069;DHT22;1545;51.728;8.796;2023-06-14T12:51:38;23.70;52.10
3069;DHT22;1545;51.728;8.796;2023-06-14T12:54:04;23.90;50.20
3069;DHT22;1545;51.728;8.796;2023-06-14T12:56:29;24.10;50.20
3069;DHT22;1545;51.728;8.796;2023-06-14T12:58:55;24.40;51.60
3069;DHT22;1545;51.728;8.796;2023-06-14T13:01:20;24.00;52.70
3069;DHT22;1545;51.728;8.796;2023-06-14T13:03:47;24.00;51.20
3069;DHT22;1545;51.728;8.796;2023-06-14T13:06:12;24.10;51.30
3069;DHT22;1545;51.728;8.796;2023-06-14T13:08:38;24.40;50.60
3069;DHT22;1545;51.728;8.796;2023-06-14T13:11:04;24.00;50.50
3069;DHT22;1545;51.728;8.796;2023-06-14T13:13:29;24.50;50.50
3069;DHT22;1545;51.728;8.796;2023-06-14T13:15:55;24.70;49.60
3069;DHT22;1545;51.728;8.796;2023-06-14T13:18:20;24.20;51.00
3069;DHT22;1545;51.728;8.796;2023-06-14T13:20:46;24.00;51.80
3069;DHT22;1545;51.728;8.796;2023-06-14T13:23:12;23.50;52.50
3069;DHT22;1545;51.728;8.796;2023-06-14T13:25:39;23.80;51.70
3069;DHT22;1545;51.728;8.796;2023-06-14T13:28:05;23.30;51.50
3069;DHT22;1545;51.728;8.796;2023-06-14T13:30:31;23.50;53.40
3069;DHT22;1545;51.728;8.796;2023-06-14T13:32:56;23.80;51.30
3069;DHT22;1545;51.728;8.796;2023-06-14T13:35:23;23.80;52.80
3069;DHT22;1545;51.728;8.796;2023-06-14T13:37:48;23.60;52.40
3069;DHT22;1545;51.728;8.796;2023-06-14T13:40:14;23.70;53.00
3069;DHT22;1545;51.728;8.796;2023-06-14T13:42:40;23.80;53.30
3069;DHT22;1545;51.728;8.796;2023-06-14T13:45:06;24.40;50.80
3069;DHT22;1545;51.728;8.796;2023-06-14T13:47:32;24.30;51.70
3069;DHT22;1545;51.728;8.796;2023-06-14T13:49:58;24.60;50.50
3069;DHT22;1545;51.728;8.796;2023-06-14T13:52:24;24.90;49.90
3069;DHT22;1545;51.728;8.796;2023-06-14T13:54:50;24.60;50.70
3069;DHT22;1545;51.728;8.796;2023-06-14T13:57:16;24.40;51.10
3069;DHT22;1545;51.728;8.796;2023-06-14T13:59:42;23.70;52.60
3069;DHT22;1545;51.728;8.796;2023-06-14T14:02:09;23.60;52.90
3069;DHT22;1545;51.728;8.796;2023-06-14T14:04:35;24.20;51.70
3069;DHT22;1545;51.728;8.796;2023-06-14T14:07:02;24.30;52.10
3069;DHT22;1545;51.728;8.796;2023-06-14T14:09:28;23.90;52.90
3069;DHT22;1545;51.728;8.796;2023-06-14T14:11:54;23.40;52.20
3069;DHT22;1545;51.728;8.796;2023-06-14T14:14:19;23.00;54.60
3069;DHT22;1545;51.728;8.796;2023-06-14T14:16:45;23.30;54.30
3069;DHT22;1545;51.728;8.796;2023-06-14T14:19:11;23.80;52.30
3069;DHT22;1545;51.728;8.796;2023-06-14T14:21:37;24.30;51.90
3069;DHT22;1545;51.728;8.796;2023-06-14T14:24:03;24.90;50.60
3069;DHT22;1545;51.728;8.796;2023-06-14T14:26:28;25.00;49.60
3069;DHT22;1545;51.728;8.796;2023-06-14T14:28:54;25.00;50.90
3069;DHT22;1545;51.728;8.796;2023-06-14T14:31:19;25.10;50.20
3069;DHT22;1545;51.728;8.796;2023-06-14T14:33:45;24.70;50.50
3069;DHT22;1545;51.728;8.796;2023-06-14T14:36:10;23.90;51.70
3069;DHT22;1545;51.728;8.796;2023-06-14T14:38:36;23.40;52.90
3069;DHT22;1545;51.728;8.796;2023-06-14T14:41:01;23.10;52.90
3069;DHT22;1545;51.728;8.796;2023-06-14T14:43:27;23.10;53.50
3069;DHT22;1545;51.728;8.796;2023-06-14T14:45:56;23.60;51.90
3069;DHT22;1545;51.728;8.796;2023-06-14T14:48:22;23.90;51.20
3069;DHT22;1545;51.728;8.796;2023-06-14T14:50:48;24.50;51.40
3069;DHT22;1545;51.728;8.796;2023-06-14T14:53:13;24.90;49.90
3069;DHT22;1545;51.728;8.796;2023-06-14T14:55:42;24.80;49.90
3069;DHT22;1545;51.728;8.796;2023-06-14T14:58:07;24.70;50.30
3069;DHT22;1545;51.728;8.796;2023-06-14T15:00:33;24.40;52.00
3069;DHT22;1545;51.728;8.796;2023-06-14T15:02:59;24.50;52.10
3069;DHT22;1545;51.728;8.796;2023-06-14T15:05:25;24.20;50.80
3069;DHT22;1545;51.728;8.796;2023-06-14T15:07:50;24.20;52.30
3069;DHT22;1545;51.728;8.796;2023-06-14T15:10:16;24.70;51.10
3069;DHT22;1545;51.728;8.796;2023-06-14T15:12:41;24.70;50.40
3069;DHT22;1545;51.728;8.796;2023-06-14T15:15:07;24.90;49.80
3069;DHT22;1545;51.728;8.796;2023-06-14T15:17:34;25.10;49.70
3069;DHT22;1545;51.728;8.796;2023-06-14T15:20:00;25.40;49.50
3069;DHT22;1545;51.728;8.796;2023-06-14T15:22:26;25.60;49.40
3069;DHT22;1545;51.728;8.796;2023-06-14T15:24:51;25.30;49.60
3069;DHT22;1545;51.728;8.796;2023-06-14T15:27:17;25.00;49.20
3069;DHT22;1545;51.728;8.796;2023-06-14T15:29:42;24.80;49.90
3069;DHT22;1545;51.728;8.796;2023-06-14T15:32:08;24.00;51.70
3069;DHT22;1545;51.728;8.796;2023-06-14T15:34:34;24.20;51.30
3069;DHT22;1545;51.728;8.796;2023-06-14T15:37:00;24.30;51.70
3069;DHT22;1545;51.728;8.796;2023-06-14T15:39:28;24.80;51.40
3069;DHT22;1545;51.728;8.796;2023-06-14T15:41:55;25.10;49.80
3069;DHT22;1545;51.728;8.796;2023-06-14T15:44:21;25.60;49.90
3069;DHT22;1545;51.728;8.796;2023-06-14T15:46:46;25.00;50.70
3069;DHT22;1545;51.728;8.796;2023-06-14T15:49:13;24.50;51.30
3069;DHT22;1545;51.728;8.796;2023-06-14T15:51:39;24.30;52.40
3069;DHT22;1545;51.728;8.796;2023-06-14T15:54:04;24.30;52.80
3069;DHT22;1545;51.728;8.796;2023-06-14T15:56:30;24.30;53.30
3069;DHT22;1545;51.728;8.796;2023-06-14T15:58:56;24.20;52.40
3069;DHT22;1545;51.728;8.796;2023-06-14T16:01:22;24.10;53.00
3069;DHT22;1545;51.728;8.796;2023-06-14T16:03:47;24.20;52.00
3069;DHT22;1545;51.728;8.796;2023-06-14T16:06:13;24.40;52.10
3069;DHT22;1545;51.728;8.796;2023-06-14T16:08:38;24.70;52.30
3069;DHT22;1545;51.728;8.796;2023-06-14T16:11:04;25.10;49.90
3069;DHT22;1545;51.728;8.796;2023-06-14T16:13:29;24.80;51.30